Time;durP1;ratioP1;P1;durP2;ratioP2;P2;SDS_P1;SDS_P2;PMS_P1;PMS_P2;Temp;Humidity;BMP_temperature;BMP_pressure;BME280_temperature;BME280_humidity;BME280_pressure;Samples;Min_cycle;Max_cycle;Signal;HPM_P1;HPM_P2
2022/03/16 00:00:31;;;;;;;;;;;;;;;;;;4204875;28;827;-57
2022/03/16 00:02:52;;;;;;;;;;;;;;;;;;4205018;28;899;-56
2022/03/16 00:05:13;;;;;;;;;;;;;;;;;;4204560;28;1988;-57
2022/03/16 00:07:34;;;;;;;;;;;;;;;;;;4204647;28;929;-57
2022/03/16 00:09:55;;;;;;;;;;;;;;;;;;4204577;28;1038;-57
2022/03/16 00:12:15;;;;;;;;;;;;;;;;;;4204637;28;826;-57
2022/03/16 00:14:36;;;;;;;;;;;;;;;;;;4189460;28;972;-57
2022/03/16 00:16:57;;;;;;;;;;;;;;;;;;4206603;28;1066;-57
2022/03/16 00:19:18;;;;;;;;;;;;;;;;;;4221289;28;940;-57
2022/03/16 00:21:38;;;;;;;;;;;;;;;;;;4220292;28;967;-56
2022/03/16 00:23:59;;;;;;;;;;;;;;;;;;4220023;28;1000;-57
2022/03/16 00:26:20;;;;;;;;;;;;;;;;;;4206157;28;1914;-56
2022/03/16 00:28:40;;;;;;;;;;;;;;;;;;4221196;28;847;-57
2022/03/16 00:31:01;;;;;;;;;;;;;;;;;;4220079;28;1033;-57
2022/03/16 00:33:22;;;;;;;;;;;;;;;;;;4221125;28;886;-57
2022/03/16 00:35:42;;;;;;;;;;;;;;;;;;4221104;28;1052;-56
2022/03/16 00:38:03;;;;;;;;;;;;;;;;;;4221041;28;872;-57
2022/03/16 00:40:23;;;;;;;;;;;;;;;;;;4221086;28;999;-56
2022/03/16 00:42:44;;;;;;;;;;;;;;;;;;4220938;28;1001;-57
2022/03/16 00:45:05;;;;;;;;;;;;;;;;;;4220941;28;1909;-57
2022/03/16 00:47:28;;;;;;;;;;;;;;;;;;4220915;28;944;-57
2022/03/16 00:49:49;;;;;;;;;;;;;;;;;;4220983;28;1014;-57
2022/03/16 00:52:09;;;;;;;;;;;;;;;;;;4219878;28;937;-57
2022/03/16 00:54:30;;;;;;;;;;;;;;;;;;4220919;28;999;-56
2022/03/16 00:56:50;;;;;;;;;;;;;;;;;;4219779;28;1015;-57
2022/03/16 00:59:11;;;;;;;;;;;;;;;;;;4220938;28;822;-58
2022/03/16 01:01:32;;;;;;;;;;;;;;;;;;4205677;28;1029;-57
2022/03/16 01:03:52;;;;;;;;;;;;;;;;;;4204462;28;1965;-57
2022/03/16 01:06:15;;;;;;;;;;;;;;;;;;4220871;28;1917;-57
2022/03/16 01:08:36;;;;;;;;;;;;;;;;;;4221020;28;824;-57
2022/03/16 01:10:57;;;;;;;;;;;;;;;;;;4220335;28;1054;-57
2022/03/16 01:13:19;;;;;;;;;;;;;;;;;;4219223;28;999;-57
2022/03/16 01:15:39;;;;;;;;;;;;;;;;;;4219624;28;933;-56
2022/03/16 01:18:00;;;;;;;;;;;;;;;;;;4220909;28;894;-57
2022/03/16 01:20:21;;;;;;;;;;;;;;;;;;4219915;28;853;-57
2022/03/16 01:22:42;;;;;;;;;;;;;;;;;;4220704;28;997;-57
2022/03/16 01:25:03;;;;;;;;;;;;;;;;;;4220913;28;1988;-57
2022/03/16 01:27:24;;;;;;;;;;;;;;;;;;4220631;28;1033;-57
2022/03/16 01:29:44;;;;;;;;;;;;;;;;;;4220318;28;802;-57
2022/03/16 01:32:05;;;;;;;;;;;;;;;;;;4204746;28;971;-57
2022/03/16 01:34:26;;;;;;;;;;;;;;;;;;4201765;28;923;-57
2022/03/16 01:36:46;;;;;;;;;;;;;;;;;;4204904;28;1011;-57
2022/03/16 01:39:07;;;;;;;;;;;;;;;;;;4221007;28;950;-57
2022/03/16 01:41:28;;;;;;;;;;;;;;;;;;4205278;28;1163;-57
2022/03/16 01:43:48;;;;;;;;;;;;;;;;;;4218943;28;1068;-57
2022/03/16 01:46:09;;;;;;;;;;;;;;;;;;4220244;28;2008;-57
2022/03/16 01:48:32;;;;;;;;;;;;;;;;;;4219383;28;970;-57
2022/03/16 01:50:52;;;;;;;;;;;;;;;;;;4219177;28;1228;-57
2022/03/16 01:53:13;;;;;;;;;;;;;;;;;;4219955;28;947;-57
2022/03/16 01:55:34;;;;;;;;;;;;;;;;;;4219060;28;1050;-57
2022/03/16 01:57:54;;;;;;;;;;;;;;;;;;4219603;28;1057;-57
2022/03/16 02:03:59;;;;;;;;;;;;;;;;;;4202260;28;1111;-57
2022/03/16 02:06:22;;;;;;;;;;;;;;;;;;4203007;28;1905;-57
2022/03/16 02:08:42;;;;;;;;;;;;;;;;;;4204235;28;1054;-57
2022/03/16 02:11:03;;;;;;;;;;;;;;;;;;4220055;28;825;-57
2022/03/16 02:13:24;;;;;;;;;;;;;;;;;;4219681;28;976;-57
2022/03/16 02:15:45;;;;;;;;;;;;;;;;;;4219982;28;909;-58
2022/03/16 02:18:05;;;;;;;;;;;;;;;;;;4218855;28;1019;-58
2022/03/16 02:20:27;;;;;;;;;;;;;;;;;;4219394;28;844;-58
2022/03/16 02:22:48;;;;;;;;;;;;;;;;;;4204602;28;856;-58
2022/03/16 02:25:08;;;;;;;;;;;;;;;;;;4190393;28;816;-58
2022/03/16 02:27:29;;;;;;;;;;;;;;;;;;4219563;28;919;-58
2022/03/16 02:29:50;;;;;;;;;;;;;;;;;;4219710;28;806;-57
2022/03/16 02:32:11;;;;;;;;;;;;;;;;;;4219866;28;1028;-57
2022/03/16 02:34:32;;;;;;;;;;;;;;;;;;4201382;28;885;-58
2022/03/16 02:36:52;;;;;;;;;;;;;;;;;;4203786;28;973;-58
2022/03/16 02:39:13;;;;;;;;;;;;;;;;;;4219846;28;915;-60
2022/03/16 02:41:34;;;;;;;;;;;;;;;;;;4219759;28;1144;-57
2022/03/16 02:43:54;;;;;;;;;;;;;;;;;;4219072;28;1072;-58
2022/03/16 02:46:15;;;;;;;;;;;;;;;;;;4207368;28;1929;-58
2022/03/16 02:48:36;;;;;;;;;;;;;;;;;;4207043;28;862;-58
2022/03/16 02:50:57;;;;;;;;;;;;;;;;;;4206709;28;1038;-58
2022/03/16 02:53:18;;;;;;;;;;;;;;;;;;4222674;28;706;-58
2022/03/16 02:55:39;;;;;;;;;;;;;;;;;;4207243;28;862;-58
2022/03/16 02:58:00;;;;;;;;;;;;;;;;;;4222199;28;936;-58
2022/03/16 03:00:20;;;;;;;;;;;;;;;;;;4222708;28;810;-58
2022/03/16 03:02:42;;;;;;;;;;;;;;;;;;4215362;28;1068;-58
2022/03/16 03:05:03;;;;;;;;;;;;;;;;;;4205432;28;833;-58
2022/03/16 03:07:23;;;;;;;;;;;;;;;;;;4218979;28;1913;-58
2022/03/16 03:09:44;;;;;;;;;;;;;;;;;;4205592;28;941;-58
2022/03/16 03:12:04;;;;;;;;;;;;;;;;;;4205590;28;884;-58
2022/03/16 03:14:25;;;;;;;;;;;;;;;;;;4205410;28;793;-58
2022/03/16 03:16:46;;;;;;;;;;;;;;;;;;4205572;28;985;-58
2022/03/16 03:19:07;;;;;;;;;;;;;;;;;;4205522;28;832;-58
2022/03/16 03:21:28;;;;;;;;;;;;;;;;;;4205258;28;867;-58
2022/03/16 03:23:48;;;;;;;;;;;;;;;;;;4204384;28;857;-58
2022/03/16 03:26:08;;;;;;;;;;;;;;;;;;4205266;28;1901;-57
2022/03/16 03:28:29;;;;;;;;;;;;;;;;;;4205404;28;751;-57
2022/03/16 03:30:50;;;;;;;;;;;;;;;;;;4205622;28;949;-58
2022/03/16 03:33:11;;;;;;;;;;;;;;;;;;4205309;28;929;-58
2022/03/16 03:35:32;;;;;;;;;;;;;;;;;;4204342;28;870;-58
2022/03/16 03:37:54;;;;;;;;;;;;;;;;;;4205453;28;885;-58
2022/03/16 03:40:15;;;;;;;;;;;;;;;;;;4205483;28;821;-58
2022/03/16 03:42:36;;;;;;;;;;;;;;;;;;4205033;28;827;-58
2022/03/16 03:44:57;;;;;;;;;;;;;;;;;;4205373;28;1290;-58
2022/03/16 03:47:17;;;;;;;;;;;;;;;;;;4205149;28;1992;-58
2022/03/16 03:49:38;;;;;;;;;;;;;;;;;;4205302;28;851;-58
2022/03/16 03:51:58;;;;;;;;;;;;;;;;;;4204637;28;1032;-58
2022/03/16 03:54:19;;;;;;;;;;;;;;;;;;4205214;28;928;-58
2022/03/16 03:56:40;;;;;;;;;;;;;;;;;;4205047;28;1063;-58
2022/03/16 03:59:00;;;;;;;;;;;;;;;;;;4204029;28;972;-58
2022/03/16 04:01:21;;;;;;;;;;;;;;;;;;4205047;28;963;-57
2022/03/16 04:03:41;;;;;;;;;;;;;;;;;;4205254;28;990;-58
2022/03/16 04:06:02;;;;;;;;;;;;;;;;;;4204781;28;1981;-58
2022/03/16 04:08:22;;;;;;;;;;;;;;;;;;4204631;28;855;-58
2022/03/16 04:10:43;;;;;;;;;;;;;;;;;;4204778;28;973;-58
2022/03/16 04:13:04;;;;;;;;;;;;;;;;;;4204539;28;861;-57
2022/03/16 04:15:24;;;;;;;;;;;;;;;;;;4204454;28;813;-58
2022/03/16 04:17:45;;;;;;;;;;;;;;;;;;4205021;28;945;-57
2022/03/16 04:20:06;;;;;;;;;;;;;;;;;;4203682;28;904;-57
2022/03/16 04:22:26;;;;;;;;;;;;;;;;;;4204710;28;947;-58
2022/03/16 04:24:47;;;;;;;;;;;;;;;;;;4204967;28;916;-58
2022/03/16 04:27:07;;;;;;;;;;;;;;;;;;4204383;28;1926;-58
2022/03/16 04:29:28;;;;;;;;;;;;;;;;;;4204506;28;955;-58
2022/03/16 04:31:49;;;;;;;;;;;;;;;;;;4217738;28;1044;-57
2022/03/16 04:34:09;;;;;;;;;;;;;;;;;;4203609;28;852;-57
2022/03/16 04:36:31;;;;;;;;;;;;;;;;;;4203501;28;928;-58
2022/03/16 04:38:52;;;;;;;;;;;;;;;;;;4204652;28;923;-58
2022/03/16 04:41:12;;;;;;;;;;;;;;;;;;4204192;28;854;-58
2022/03/16 04:43:33;;;;;;;;;;;;;;;;;;4204684;28;788;-58
2022/03/16 04:45:53;;;;;;;;;;;;;;;;;;4204793;28;1176;-58
2022/03/16 04:48:14;;;;;;;;;;;;;;;;;;4204476;28;953;-58
2022/03/16 04:50:34;;;;;;;;;;;;;;;;;;4203346;28;1173;-58
2022/03/16 04:52:56;;;;;;;;;;;;;;;;;;4204142;28;1014;-58
2022/03/16 04:55:17;;;;;;;;;;;;;;;;;;4204413;28;1014;-58
2022/03/16 04:57:37;;;;;;;;;;;;;;;;;;4203295;28;846;-57
2022/03/16 04:59:58;;;;;;;;;;;;;;;;;;4203294;28;866;-57
2022/03/16 05:02:19;;;;;;;;;;;;;;;;;;4204640;28;981;-58
2022/03/16 05:04:39;;;;;;;;;;;;;;;;;;4204863;28;983;-57
2022/03/16 05:07:00;;;;;;;;;;;;;;;;;;4203877;28;1996;-58
2022/03/16 05:09:21;;;;;;;;;;;;;;;;;;4204407;28;864;-58
2022/03/16 05:11:42;;;;;;;;;;;;;;;;;;4203446;28;1022;-58
2022/03/16 05:14:03;;;;;;;;;;;;;;;;;;4204160;28;991;-58
2022/03/16 05:16:24;;;;;;;;;;;;;;;;;;4204271;28;947;-58
2022/03/16 05:18:45;;;;;;;;;;;;;;;;;;4217400;28;935;-57
2022/03/16 05:21:07;;;;;;;;;;;;;;;;;;4204056;28;965;-57
2022/03/16 05:23:28;;;;;;;;;;;;;;;;;;4203974;28;1010;-58
2022/03/16 05:25:49;;;;;;;;;;;;;;;;;;4204324;28;944;-58
2022/03/16 05:28:09;;;;;;;;;;;;;;;;;;4203843;28;1987;-58
2022/03/16 05:30:30;;;;;;;;;;;;;;;;;;4203848;28;837;-57
2022/03/16 05:32:51;;;;;;;;;;;;;;;;;;4203550;28;1036;-57
2022/03/16 05:35:11;;;;;;;;;;;;;;;;;;4203574;28;813;-58
2022/03/16 05:37:32;;;;;;;;;;;;;;;;;;4216791;28;836;-57
2022/03/16 05:39:53;;;;;;;;;;;;;;;;;;4216771;28;983;-58
2022/03/16 05:42:14;;;;;;;;;;;;;;;;;;4203220;28;1021;-58
2022/03/16 05:44:35;;;;;;;;;;;;;;;;;;4203927;28;1314;-57
2022/03/16 05:46:57;;;;;;;;;;;;;;;;;;4203666;28;1922;-58
2022/03/16 05:49:18;;;;;;;;;;;;;;;;;;4203683;28;1196;-58
2022/03/16 05:51:39;;;;;;;;;;;;;;;;;;4217132;28;972;-57
2022/03/16 05:53:59;;;;;;;;;;;;;;;;;;4217028;28;1046;-58
2022/03/16 05:56:20;;;;;;;;;;;;;;;;;;4203612;28;1007;-58
2022/03/16 05:58:41;;;;;;;;;;;;;;;;;;4203586;28;973;-58
2022/03/16 06:01:01;;;;;;;;;;;;;;;;;;4203230;28;1150;-58
2022/03/16 06:03:22;;;;;;;;;;;;;;;;;;4202200;28;1097;-58
2022/03/16 06:05:42;;;;;;;;;;;;;;;;;;4203628;28;1039;-57
2022/03/16 06:08:03;;;;;;;;;;;;;;;;;;4203395;28;1910;-58
2022/03/16 06:10:24;;;;;;;;;;;;;;;;;;4203307;28;828;-58
2022/03/16 06:12:45;;;;;;;;;;;;;;;;;;4202253;28;1069;-58
2022/03/16 06:15:06;;;;;;;;;;;;;;;;;;4203314;28;930;-58
2022/03/16 06:17:26;;;;;;;;;;;;;;;;;;4203254;28;920;-57
2022/03/16 06:19:47;;;;;;;;;;;;;;;;;;4204373;28;864;-57
2022/03/16 06:22:07;;;;;;;;;;;;;;;;;;4206433;28;994;-58
2022/03/16 06:24:28;;;;;;;;;;;;;;;;;;4206350;28;1314;-57
2022/03/16 06:26:49;;;;;;;;;;;;;;;;;;4205221;28;1910;-56
2022/03/16 06:29:10;;;;;;;;;;;;;;;;;;4204727;28;969;-57
2022/03/16 06:31:30;;;;;;;;;;;;;;;;;;4204923;28;833;-57
2022/03/16 06:33:51;;;;;;;;;;;;;;;;;;4203707;28;976;-56
2022/03/16 06:36:12;;;;;;;;;;;;;;;;;;4204717;28;939;-57
2022/03/16 06:38:33;;;;;;;;;;;;;;;;;;4204495;28;1153;-56
2022/03/16 06:40:53;;;;;;;;;;;;;;;;;;4217842;28;876;-56
2022/03/16 06:43:14;;;;;;;;;;;;;;;;;;4204664;28;941;-57
2022/03/16 06:45:34;;;;;;;;;;;;;;;;;;4205124;28;1091;-59
2022/03/16 06:47:56;;;;;;;;;;;;;;;;;;4204968;28;1984;-58
2022/03/16 06:50:18;;;;;;;;;;;;;;;;;;4217957;28;879;-59
2022/03/16 06:52:39;;;;;;;;;;;;;;;;;;4204740;28;904;-58
2022/03/16 06:55:00;;;;;;;;;;;;;;;;;;4204736;28;991;-59
2022/03/16 06:57:21;;;;;;;;;;;;;;;;;;4204525;28;935;-58
2022/03/16 06:59:42;;;;;;;;;;;;;;;;;;4204235;28;976;-59
2022/03/16 07:02:02;;;;;;;;;;;;;;;;;;4204158;28;1082;-59
2022/03/16 07:04:23;;;;;;;;;;;;;;;;;;4204482;28;822;-58
2022/03/16 07:06:44;;;;;;;;;;;;;;;;;;4204806;28;923;-59
2022/03/16 07:09:05;;;;;;;;;;;;;;;;;;4204556;28;852;-59
2022/03/16 07:11:25;;;;;;;;;;;;;;;;;;4204778;28;893;-58
2022/03/16 07:14:30;;;;;;;;;;;;;;;;;;4204569;28;1024;-58
2022/03/16 07:16:29;;;;;;;;;;;;;;;;;;4204594;28;860;-59
2022/03/16 07:18:50;;;;;;;;;;;;;;;;;;4204479;28;998;-59
2022/03/16 07:21:10;;;;;;;;;;;;;;;;;;4204716;28;979;-59
2022/03/16 07:23:31;;;;;;;;;;;;;;;;;;4204365;28;912;-59
2022/03/16 07:25:52;;;;;;;;;;;;;;;;;;4204298;28;1108;-59
2022/03/16 07:28:13;;;;;;;;;;;;;;;;;;4204693;28;1992;-58
2022/03/16 07:30:34;;;;;;;;;;;;;;;;;;4204031;28;937;-58
2022/03/16 07:32:55;;;;;;;;;;;;;;;;;;4203303;28;1075;-58
2022/03/16 07:35:15;;;;;;;;;;;;;;;;;;4204720;28;830;-59
2022/03/16 07:37:36;;;;;;;;;;;;;;;;;;4204559;28;843;-59
2022/03/16 07:39:57;;;;;;;;;;;;;;;;;;4210716;28;2332;-59
2022/03/16 07:42:17;;;;;;;;;;;;;;;;;;4212461;28;1473;-59
2022/03/16 07:44:38;;;;;;;;;;;;;;;;;;4216365;28;1780;-59
2022/03/16 07:46:59;;;;;;;;;;;;;;;;;;4217965;28;1768;-59
2022/03/16 07:49:20;;;;;;;;;;;;;;;;;;4211052;28;1847;-59
2022/03/16 07:51:41;;;;;;;;;;;;;;;;;;4211266;28;2126;-59
2022/03/16 07:54:02;;;;;;;;;;;;;;;;;;4220893;28;817;-58
2022/03/16 07:56:23;;;;;;;;;;;;;;;;;;4205125;28;1141;-58
2022/03/16 07:58:45;;;;;;;;;;;;;;;;;;4220882;28;917;-59
2022/03/16 08:01:06;;;;;;;;;;;;;;;;;;4220767;28;1146;-59
2022/03/16 08:03:27;;;;;;;;;;;;;;;;;;4205325;28;1152;-59
2022/03/16 08:05:48;;;;;;;;;;;;;;;;;;4220762;28;1027;-59
2022/03/16 08:08:08;;;;;;;;;;;;;;;;;;4220601;28;1913;-58
2022/03/16 08:10:29;;;;;;;;;;;;;;;;;;4205246;28;882;-58
2022/03/16 08:12:50;;;;;;;;;;;;;;;;;;4220138;28;1582;-59
2022/03/16 08:15:11;;;;;;;;;;;;;;;;;;4220809;28;762;-58
2022/03/16 08:17:31;;;;;;;;;;;;;;;;;;4220371;28;929;-60
2022/03/16 08:19:52;;;;;;;;;;;;;;;;;;4220509;28;830;-59
2022/03/16 08:22:13;;;;;;;;;;;;;;;;;;4220107;28;1050;-60
2022/03/16 08:24:33;;;;;;;;;;;;;;;;;;4219825;28;996;-60
2022/03/16 08:26:54;;;;;;;;;;;;;;;;;;4204237;28;1939;-59
2022/03/16 08:29:15;;;;;;;;;;;;;;;;;;4218165;28;1914;-59
2022/03/16 08:31:35;;;;;;;;;;;;;;;;;;4209203;28;1995;-59
2022/03/16 08:33:56;;;;;;;;;;;;;;;;;;4200503;28;1040;-59
2022/03/16 08:36:17;;;;;;;;;;;;;;;;;;4201665;28;1297;-58
2022/03/16 08:38:38;;;;;;;;;;;;;;;;;;4202409;28;919;-58
2022/03/16 08:40:58;;;;;;;;;;;;;;;;;;4202428;28;831;-60
2022/03/16 08:43:19;;;;;;;;;;;;;;;;;;4201446;28;835;-61
2022/03/16 08:45:40;;;;;;;;;;;;;;;;;;4203109;28;1443;-58
2022/03/16 08:48:01;;;;;;;;;;;;;;;;;;4203365;28;1914;-58
2022/03/16 08:50:21;;;;;;;;;;;;;;;;;;4202437;28;1043;-60
2022/03/16 08:52:42;;;;;;;;;;;;;;;;;;4203487;28;929;-61
2022/03/16 08:55:02;;;;;;;;;;;;;;;;;;4202340;28;918;-61
2022/03/16 08:57:23;;;;;;;;;;;;;;;;;;4203336;28;769;-59
2022/03/16 08:59:45;;;;;;;;;;;;;;;;;;4203285;28;844;-59
2022/03/16 09:02:06;;;;;;;;;;;;;;;;;;4203150;28;975;-60
2022/03/16 09:04:26;;;;;;;;;;;;;;;;;;4203424;28;1021;-59
2022/03/16 09:06:48;;;;;;;;;;;;;;;;;;4203151;28;1012;-59
2022/03/16 09:09:08;;;;;;;;;;;;;;;;;;4202787;28;1906;-59
2022/03/16 09:11:29;;;;;;;;;;;;;;;;;;4203320;28;895;-58
2022/03/16 09:13:50;;;;;;;;;;;;;;;;;;4203293;28;873;-58
2022/03/16 09:16:10;;;;;;;;;;;;;;;;;;4216329;28;967;-59
2022/03/16 09:18:31;;;;;;;;;;;;;;;;;;4203091;28;905;-59
2022/03/16 09:20:53;;;;;;;;;;;;;;;;;;4201844;28;1052;-60
2022/03/16 09:23:13;;;;;;;;;;;;;;;;;;4209198;28;1634;-61
2022/03/16 09:25:35;;;;;;;;;;;;;;;;;;4203601;28;1299;-61
2022/03/16 09:28:03;;;;;;;;;;;;;;;;;;4218273;28;1898;-61
2022/03/16 09:30:24;;;;;;;;;;;;;;;;;;4219236;28;956;-62
2022/03/16 09:32:46;;;;;;;;;;;;;;;;;;4219215;28;838;-60
2022/03/16 09:35:09;;;;;;;;;;;;;;;;;;4218155;28;945;-59
2022/03/16 09:37:30;;;;;;;;;;;;;;;;;;4219346;28;1029;-61
2022/03/16 09:39:51;;;;;;;;;;;;;;;;;;4219370;28;857;-61
2022/03/16 09:42:11;;;;;;;;;;;;;;;;;;4219503;28;994;-61
2022/03/16 09:44:32;;;;;;;;;;;;;;;;;;4219386;28;1187;-61
2022/03/16 09:46:52;;;;;;;;;;;;;;;;;;4219268;28;861;-62
2022/03/16 09:49:13;;;;;;;;;;;;;;;;;;4203561;28;1929;-63
2022/03/16 09:51:36;;;;;;;;;;;;;;;;;;4218337;28;978;-60
2022/03/16 09:53:56;;;;;;;;;;;;;;;;;;4218706;28;830;-61
2022/03/16 09:56:17;;;;;;;;;;;;;;;;;;4218822;28;1001;-61
2022/03/16 09:58:38;;;;;;;;;;;;;;;;;;4218925;28;1103;-63
2022/03/16 10:00:58;;;;;;;;;;;;;;;;;;4219053;28;877;-63
2022/03/16 10:03:19;;;;;;;;;;;;;;;;;;4217194;28;1564;-61
2022/03/16 10:05:40;;;;;;;;;;;;;;;;;;4218803;28;771;-60
2022/03/16 10:08:02;;;;;;;;;;;;;;;;;;4203713;28;990;-62
2022/03/16 10:13:18;;;;;;;;;;;;;;;;;;4218512;28;957;-61
2022/03/16 10:15:39;;;;;;;;;;;;;;;;;;4218779;28;877;-60
2022/03/16 10:18:01;;;;;;;;;;;;;;;;;;4218457;28;1078;-59
2022/03/16 10:20:21;;;;;;;;;;;;;;;;;;4218588;28;1094;-61
2022/03/16 10:22:43;;;;;;;;;;;;;;;;;;4218555;28;1108;-60
2022/03/16 10:25:04;;;;;;;;;;;;;;;;;;4218550;28;1077;-59
2022/03/16 10:27:25;;;;;;;;;;;;;;;;;;4218658;28;837;-60
2022/03/16 10:29:46;;;;;;;;;;;;;;;;;;4218480;28;1918;-61
2022/03/16 10:32:07;;;;;;;;;;;;;;;;;;4218622;28;922;-60
2022/03/16 10:34:28;;;;;;;;;;;;;;;;;;4217599;28;972;-61
2022/03/16 10:36:49;;;;;;;;;;;;;;;;;;4217540;28;843;-60
2022/03/16 10:39:09;;;;;;;;;;;;;;;;;;4217637;28;838;-60
2022/03/16 10:46:47;;;;;;;;;;;;;;;;;;4218426;28;817;-59
2022/03/16 10:49:07;;;;;;;;;;;;;;;;;;4217304;28;1909;-57
2022/03/16 10:51:28;;;;;;;;;;;;;;;;;;4218490;28;825;-58
2022/03/16 10:53:50;;;;;;;;;;;;;;;;;;4218385;28;894;-58
2022/03/16 10:56:16;;;;;;;;;;;;;;;;;;4216551;28;1015;-59
2022/03/16 10:58:37;;;;;;;;;;;;;;;;;;4217963;28;999;-58
2022/03/16 11:00:58;;;;;;;;;;;;;;;;;;4217851;28;1013;-59
2022/03/16 11:03:18;;;;;;;;;;;;;;;;;;4216823;28;859;-60
2022/03/16 11:05:40;;;;;;;;;;;;;;;;;;4218758;28;954;-58
2022/03/16 11:08:04;;;;;;;;;;;;;;;;;;4221165;28;1021;-59
2022/03/16 11:10:25;;;;;;;;;;;;;;;;;;4220950;28;1906;-59
2022/03/16 11:15:24;;;;;;;;;;;;;;;;;;4221130;28;915;-59
2022/03/16 11:17:45;;;;;;;;;;;;;;;;;;4220729;28;890;-59
2022/03/16 11:20:08;;;;;;;;;;;;;;;;;;4221910;28;861;-59
2022/03/16 11:22:29;;;;;;;;;;;;;;;;;;4221933;28;929;-59
2022/03/16 11:24:49;;;;;;;;;;;;;;;;;;4221911;28;917;-60
2022/03/16 11:27:10;;;;;;;;;;;;;;;;;;4222282;28;819;-59
2022/03/16 11:29:33;;;;;;;;;;;;;;;;;;4221132;28;1922;-59
2022/03/16 11:31:54;;;;;;;;;;;;;;;;;;4203181;28;2105;-59
2022/03/16 11:34:14;;;;;;;;;;;;;;;;;;4217933;28;2267;-59
2022/03/16 11:36:37;;;;;;;;;;;;;;;;;;4206214;28;1683;-60
2022/03/16 11:38:58;;;;;;;;;;;;;;;;;;4189460;28;979;-60
2022/03/16 11:41:19;;;;;;;;;;;;;;;;;;4213078;28;904;-60
2022/03/16 11:43:40;;;;;;;;;;;;;;;;;;4221105;28;1346;-60
2022/03/16 11:46:02;;;;;;;;;;;;;;;;;;4207438;28;1059;-61
2022/03/16 11:48:22;;;;;;;;;;;;;;;;;;4209024;28;1657;-59
2022/03/16 11:50:43;;;;;;;;;;;;;;;;;;4220280;28;1909;-59
2022/03/16 11:53:04;;;;;;;;;;;;;;;;;;4221365;28;788;-59
2022/03/16 11:55:25;;;;;;;;;;;;;;;;;;4221365;28;896;-59
2022/03/16 11:57:45;;;;;;;;;;;;;;;;;;4221113;28;907;-60
2022/03/16 12:00:06;;;;;;;;;;;;;;;;;;4205411;28;956;-60
2022/03/16 12:02:32;;;;;;;;;;;;;;;;;;4220786;28;904;-59
2022/03/16 12:04:53;;;;;;;;;;;;;;;;;;4220500;28;963;-57
2022/03/16 12:07:14;;;;;;;;;;;;;;;;;;4221230;28;854;-58
2022/03/16 12:09:38;;;;;;;;;;;;;;;;;;4221220;28;1902;-56
2022/03/16 12:14:36;;;;;;;;;;;;;;;;;;4181162;28;1021;-57
2022/03/16 12:16:56;;;;;;;;;;;;;;;;;;4219504;28;1226;-56
2022/03/16 12:19:19;;;;;;;;;;;;;;;;;;4220097;28;966;-56
2022/03/16 12:21:40;;;;;;;;;;;;;;;;;;4221456;28;931;-55
2022/03/16 12:25:08;;;;;;;;;;;;;;;;;;4221329;28;1278;-56
2022/03/16 12:28:55;;;;;;;;;;;;;;;;;;4221356;28;857;-56
2022/03/16 12:29:20;;;;;;;;;;;;;;;;;;4221148;28;1925;-58
2022/03/16 12:31:42;;;;;;;;;;;;;;;;;;4221174;28;825;-55
2022/03/16 12:34:03;;;;;;;;;;;;;;;;;;4220820;28;976;-55
2022/03/16 12:36:23;;;;;;;;;;;;;;;;;;4221239;28;1005;-56
2022/03/16 12:38:44;;;;;;;;;;;;;;;;;;4221229;28;883;-55
2022/03/16 12:43:42;;;;;;;;;;;;;;;;;;4221062;28;960;-57
2022/03/16 12:46:03;;;;;;;;;;;;;;;;;;4220993;28;937;-57
2022/03/16 12:48:24;;;;;;;;;;;;;;;;;;4221142;28;870;-55
2022/03/16 12:50:47;;;;;;;;;;;;;;;;;;4219883;28;1914;-56
2022/03/16 12:53:08;;;;;;;;;;;;;;;;;;4220523;28;946;-57
2022/03/16 12:55:28;;;;;;;;;;;;;;;;;;4220718;28;862;-58
2022/03/16 12:57:49;;;;;;;;;;;;;;;;;;4220804;28;887;-58
2022/03/16 13:00:11;;;;;;;;;;;;;;;;;;4205612;28;1251;-55
2022/03/16 13:02:32;;;;;;;;;;;;;;;;;;4220733;28;902;-56
2022/03/16 13:04:53;;;;;;;;;;;;;;;;;;4220439;28;1099;-55
2022/03/16 13:07:15;;;;;;;;;;;;;;;;;;4220410;28;1049;-57
2022/03/16 13:09:36;;;;;;;;;;;;;;;;;;4220630;28;1984;-56
2022/03/16 13:11:57;;;;;;;;;;;;;;;;;;4204755;28;874;-57
2022/03/16 13:14:18;;;;;;;;;;;;;;;;;;4220142;28;1103;-58
2022/03/16 13:16:38;;;;;;;;;;;;;;;;;;4220379;28;901;-56
2022/03/16 13:18:59;;;;;;;;;;;;;;;;;;4220483;28;847;-56
2022/03/16 13:21:20;;;;;;;;;;;;;;;;;;4219918;28;1122;-57
2022/03/16 13:23:40;;;;;;;;;;;;;;;;;;4220445;28;829;-55
2022/03/16 13:26:01;;;;;;;;;;;;;;;;;;4220499;28;1127;-57
2022/03/16 13:28:22;;;;;;;;;;;;;;;;;;4219677;28;936;-56
2022/03/16 13:30:42;;;;;;;;;;;;;;;;;;4220241;28;2005;-57
2022/03/16 13:33:03;;;;;;;;;;;;;;;;;;4220434;28;860;-57
2022/03/16 13:35:25;;;;;;;;;;;;;;;;;;4220179;28;949;-55
2022/03/16 13:37:45;;;;;;;;;;;;;;;;;;4220300;28;943;-56
2022/03/16 13:40:07;;;;;;;;;;;;;;;;;;4220270;28;1172;-56
2022/03/16 13:42:28;;;;;;;;;;;;;;;;;;4214214;28;859;-56
2022/03/16 13:44:48;;;;;;;;;;;;;;;;;;4215973;28;1158;-56
2022/03/16 13:47:09;;;;;;;;;;;;;;;;;;4217743;28;1025;-57
2022/03/16 13:49:30;;;;;;;;;;;;;;;;;;4217895;28;750;-57
2022/03/16 13:51:50;;;;;;;;;;;;;;;;;;4217731;28;976;-57
2022/03/16 13:54:11;;;;;;;;;;;;;;;;;;4218157;28;1009;-56
2022/03/16 13:56:32;;;;;;;;;;;;;;;;;;4218601;28;975;-56
2022/03/16 13:58:53;;;;;;;;;;;;;;;;;;4219492;28;1015;-56
2022/03/16 14:01:16;;;;;;;;;;;;;;;;;;4220099;28;1018;-56
2022/03/16 14:03:37;;;;;;;;;;;;;;;;;;4216556;28;1599;-56
2022/03/16 14:05:57;;;;;;;;;;;;;;;;;;4219788;28;1015;-54
2022/03/16 14:08:18;;;;;;;;;;;;;;;;;;4203777;28;2781;-55
2022/03/16 14:10:40;;;;;;;;;;;;;;;;;;4219773;28;1986;-55
2022/03/16 14:13:01;;;;;;;;;;;;;;;;;;4220075;28;822;-55
2022/03/16 14:15:22;;;;;;;;;;;;;;;;;;4219466;28;977;-56
2022/03/16 14:17:43;;;;;;;;;;;;;;;;;;4218319;28;970;-57
2022/03/16 14:20:03;;;;;;;;;;;;;;;;;;4219536;28;1127;-55
2022/03/16 14:22:24;;;;;;;;;;;;;;;;;;4219418;28;950;-55
2022/03/16 14:24:45;;;;;;;;;;;;;;;;;;4219017;28;1390;-56
2022/03/16 14:27:18;;;;;;;;;;;;;;;;;;4219557;28;882;-55
2022/03/16 14:29:39;;;;;;;;;;;;;;;;;;4219496;28;857;-56
2022/03/16 14:31:59;;;;;;;;;;;;;;;;;;4219407;28;833;-56
2022/03/16 14:34:20;;;;;;;;;;;;;;;;;;4219595;28;968;-56
2022/03/16 14:36:41;;;;;;;;;;;;;;;;;;4219393;28;943;-56
2022/03/16 14:39:02;;;;;;;;;;;;;;;;;;4219473;28;973;-56
2022/03/16 14:41:23;;;;;;;;;;;;;;;;;;4220884;28;953;-57
2022/03/16 14:43:44;;;;;;;;;;;;;;;;;;4221644;28;1094;-58
2022/03/16 14:46:05;;;;;;;;;;;;;;;;;;4222381;28;850;-57
2022/03/16 14:48:26;;;;;;;;;;;;;;;;;;4222359;28;827;-56
2022/03/16 14:50:48;;;;;;;;;;;;;;;;;;4222311;28;1983;-56
2022/03/16 14:53:08;;;;;;;;;;;;;;;;;;4221732;28;1144;-56
2022/03/16 14:55:29;;;;;;;;;;;;;;;;;;4222301;28;967;-56
2022/03/16 14:57:49;;;;;;;;;;;;;;;;;;4206412;28;879;-56
2022/03/16 15:00:10;;;;;;;;;;;;;;;;;;4222137;28;770;-56
2022/03/16 15:02:31;;;;;;;;;;;;;;;;;;4221706;28;1283;-56
2022/03/16 15:04:52;;;;;;;;;;;;;;;;;;4222056;28;966;-56
2022/03/16 15:07:13;;;;;;;;;;;;;;;;;;4221931;28;966;-56
2022/03/16 15:09:34;;;;;;;;;;;;;;;;;;4222036;28;833;-57
2022/03/16 15:11:55;;;;;;;;;;;;;;;;;;4221772;28;1905;-57
2022/03/16 15:14:16;;;;;;;;;;;;;;;;;;4214287;28;2088;-57
2022/03/16 15:16:36;;;;;;;;;;;;;;;;;;4210630;28;1188;-57
2022/03/16 15:18:57;;;;;;;;;;;;;;;;;;4204538;28;1005;-56
2022/03/16 15:21:18;;;;;;;;;;;;;;;;;;4218523;28;1355;-57
2022/03/16 15:23:38;;;;;;;;;;;;;;;;;;4221116;28;922;-56
2022/03/16 15:25:59;;;;;;;;;;;;;;;;;;4221030;28;939;-56
2022/03/16 15:28:20;;;;;;;;;;;;;;;;;;4221079;28;998;-57
2022/03/16 15:30:40;;;;;;;;;;;;;;;;;;4204285;28;1921;-56
2022/03/16 15:33:01;;;;;;;;;;;;;;;;;;4214870;28;1761;-56
2022/03/16 15:35:22;;;;;;;;;;;;;;;;;;4220967;28;993;-56
2022/03/16 15:37:42;;;;;;;;;;;;;;;;;;4221263;28;1023;-57
2022/03/16 15:42:47;;;;;;;;;;;;;;;;;;4219092;28;1874;-57
2022/03/16 15:45:07;;;;;;;;;;;;;;;;;;4220773;28;1312;-56
2022/03/16 15:47:28;;;;;;;;;;;;;;;;;;4205792;28;1053;-56
2022/03/16 15:49:48;;;;;;;;;;;;;;;;;;4220944;28;1010;-57
2022/03/16 15:52:09;;;;;;;;;;;;;;;;;;4220524;28;1941;-56
2022/03/16 15:54:30;;;;;;;;;;;;;;;;;;4214504;28;1819;-57
2022/03/16 15:56:51;;;;;;;;;;;;;;;;;;4204269;28;893;-56
2022/03/16 15:59:13;;;;;;;;;;;;;;;;;;4219229;28;1235;-56
2022/03/16 16:01:34;;;;;;;;;;;;;;;;;;4221384;28;918;-57
2022/03/16 16:03:57;;;;;;;;;;;;;;;;;;4220429;28;967;-57
2022/03/16 16:06:18;;;;;;;;;;;;;;;;;;4205420;28;1059;-56
2022/03/16 16:08:38;;;;;;;;;;;;;;;;;;4220554;28;1392;-56
2022/03/16 16:11:11;;;;;;;;;;;;;;;;;;4219423;28;1988;-56
2022/03/16 16:13:33;;;;;;;;;;;;;;;;;;4219853;28;1041;-56
2022/03/16 16:15:54;;;;;;;;;;;;;;;;;;4204920;28;990;-56
2022/03/16 16:18:15;;;;;;;;;;;;;;;;;;4205036;28;952;-56
2022/03/16 16:20:37;;;;;;;;;;;;;;;;;;4220270;28;1390;-56
2022/03/16 16:22:58;;;;;;;;;;;;;;;;;;4219946;28;977;-56
2022/03/16 16:25:19;;;;;;;;;;;;;;;;;;4220659;28;827;-56
2022/03/16 16:27:40;;;;;;;;;;;;;;;;;;4221010;28;857;-55
2022/03/16 16:30:17;;;;;;;;;;;;;;;;;;4220356;28;1105;-57
2022/03/16 16:32:38;;;;;;;;;;;;;;;;;;4220473;28;867;-56
2022/03/16 16:35:04;;;;;;;;;;;;;;;;;;4220539;28;1002;-58
2022/03/16 16:37:24;;;;;;;;;;;;;;;;;;4205276;28;833;-55
2022/03/16 16:39:45;;;;;;;;;;;;;;;;;;4204796;28;873;-58
2022/03/16 16:44:41;;;;;;;;;;;;;;;;;;4218505;28;1168;-58
2022/03/16 16:47:02;;;;;;;;;;;;;;;;;;4220076;28;949;-58
2022/03/16 16:49:22;;;;;;;;;;;;;;;;;;4220175;28;1051;-58
2022/03/16 16:51:46;;;;;;;;;;;;;;;;;;4208952;28;1988;-59
2022/03/16 16:54:09;;;;;;;;;;;;;;;;;;4202673;28;854;-58